createdAt,value
2022-11-18T00:02:25.361Z,1.93
2022-11-18T00:05:27.028Z,2.13
2022-11-18T00:08:28.723Z,1.83
2022-11-18T00:11:49.010Z,1.93
2022-11-18T00:14:50.727Z,2.37
2022-11-18T00:17:52.358Z,2.43
2022-11-18T00:20:54.012Z,2.13
2022-11-18T00:23:55.679Z,1.83
2022-11-18T00:26:57.611Z,2.13
2022-11-18T00:29:59.303Z,2.73
2022-11-18T00:33:00.959Z,2.47
2022-11-18T00:36:04.003Z,2.03
2022-11-18T00:39:05.677Z,1.70
2022-11-18T00:42:26.139Z,2.87
2022-11-18T00:45:27.859Z,2.37
2022-11-18T00:48:29.756Z,2.57
2022-11-18T00:51:31.412Z,2.53
2022-11-18T00:54:33.130Z,1.87
2022-11-18T00:57:34.868Z,2.20
2022-11-18T01:00:36.527Z,2.43
2022-11-18T01:03:38.223Z,2.80
2022-11-18T01:06:39.955Z,2.20
2022-11-18T01:09:41.684Z,2.00
2022-11-18T01:13:02.112Z,2.20
2022-11-18T01:16:03.972Z,1.80
2022-11-18T01:19:05.687Z,1.60
2022-11-18T01:22:07.342Z,2.27
2022-11-18T01:25:09.535Z,1.80
2022-11-18T01:28:12.166Z,1.83
2022-11-18T01:31:16.947Z,1.70
2022-11-18T01:34:18.713Z,1.30
2022-11-18T01:37:20.380Z,1.27
2022-11-18T01:40:22.053Z,1.40
2022-11-18T01:43:24.209Z,3.70
2022-11-18T01:46:28.765Z,3.80
2022-11-18T01:49:30.632Z,1.63
2022-11-18T01:52:34.477Z,1.90
2022-11-18T01:55:41.118Z,2.33
2022-11-18T01:58:57.374Z,1.90
2022-11-18T02:02:00.946Z,1.63
2022-11-18T02:05:05.613Z,1.60
2022-11-18T02:08:07.986Z,1.37
2022-11-18T02:11:34.006Z,1.20
2022-11-18T02:14:41.444Z,1.43
2022-11-18T02:18:07.483Z,1.90
2022-11-18T02:21:38.558Z,1.70
2022-11-18T02:25:06.334Z,1.57
2022-11-18T02:28:38.555Z,1.60
2022-11-18T02:31:56.187Z,1.43
2022-11-18T02:35:09.506Z,1.67
2022-11-18T02:38:23.251Z,1.80
2022-11-18T02:41:29.186Z,1.60
2022-11-18T02:44:32.631Z,1.40
2022-11-18T02:47:37.299Z,1.23
2022-11-18T02:50:42.694Z,1.50
2022-11-18T02:53:47.741Z,1.43
2022-11-18T02:56:52.207Z,1.90
2022-11-18T02:59:53.876Z,1.50
2022-11-18T03:02:55.558Z,1.80
2022-11-18T03:06:08.264Z,1.60
2022-11-18T03:09:18.443Z,1.73
2022-11-18T03:12:41.251Z,1.20
2022-11-18T03:16:06.831Z,1.53
2022-11-18T03:19:24.880Z,1.70
2022-11-18T03:22:52.355Z,1.57
2022-11-18T03:25:56.225Z,1.57
2022-11-18T03:29:21.311Z,1.30
2022-11-18T03:32:33.347Z,1.90
2022-11-18T03:35:38.130Z,1.63
2022-11-18T03:38:47.808Z,1.53
2022-11-18T03:41:57.603Z,1.93
2022-11-18T03:45:31.078Z,1.00
2022-11-18T03:48:40.877Z,2.30
2022-11-18T03:51:47.952Z,1.80
2022-11-18T03:54:54.810Z,1.93
2022-11-18T03:58:05.487Z,1.80
2022-11-18T04:01:16.829Z,2.20
2022-11-18T04:04:19.408Z,1.63
2022-11-18T04:07:32.557Z,2.50
2022-11-18T04:11:32.887Z,1.97
2022-11-18T04:14:35.656Z,2.27
2022-11-18T04:17:37.374Z,2.40
2022-11-18T04:20:39.486Z,2.60
2022-11-18T04:23:41.176Z,2.10
2022-11-18T04:26:43.120Z,2.67
2022-11-18T04:29:44.807Z,2.00
2022-11-18T04:32:46.493Z,2.77
2022-11-18T04:35:48.161Z,2.47
2022-11-18T04:38:49.823Z,2.33
2022-11-18T04:41:57.264Z,2.40
2022-11-18T04:44:59.031Z,2.10
2022-11-18T04:48:03.696Z,2.10
2022-11-18T04:51:06.039Z,1.83
2022-11-18T04:54:07.742Z,1.80
2022-11-18T04:57:09.896Z,2.43
2022-11-18T05:00:12.340Z,1.90
2022-11-18T05:03:15.108Z,2.40
2022-11-18T05:06:16.887Z,2.20
2022-11-18T05:09:19.436Z,2.13
2022-11-18T05:12:40.141Z,1.80
2022-11-18T05:15:41.832Z,2.03
2022-11-18T05:18:43.779Z,1.87
2022-11-18T05:21:45.517Z,2.30
2022-11-18T05:24:47.552Z,2.30
2022-11-18T05:27:49.214Z,2.17
2022-11-18T05:30:50.877Z,2.27
2022-11-18T05:33:52.538Z,2.10
2022-11-18T05:36:54.178Z,1.90
2022-11-18T05:39:55.812Z,2.37
2022-11-18T05:43:12.585Z,2.13
2022-11-18T05:46:14.265Z,2.50
2022-11-18T05:49:16.248Z,2.27
2022-11-18T05:52:18.131Z,3.23
2022-11-18T05:55:22.860Z,2.37
2022-11-18T05:58:24.827Z,2.97
2022-11-18T06:01:32.113Z,2.93
2022-11-18T06:04:41.159Z,5.17
2022-11-18T06:07:44.816Z,4.93
2022-11-18T06:10:47.907Z,5.03
2022-11-18T06:14:02.508Z,3.57
2022-11-18T06:17:08.871Z,2.07
2022-11-18T06:20:11.041Z,2.30
2022-11-18T06:23:13.326Z,2.70
2022-11-18T06:26:16.879Z,2.70
2022-11-18T06:29:26.003Z,3.67
2022-11-18T06:32:29.261Z,3.97
2022-11-18T06:35:30.938Z,4.67
2022-11-18T06:38:32.658Z,5.03
2022-11-18T06:41:34.450Z,3.60
2022-11-18T06:44:36.191Z,5.37
2022-11-18T06:47:37.988Z,3.90
2022-11-18T06:50:39.654Z,3.30
2022-11-18T06:53:41.542Z,3.93
2022-11-18T06:56:43.236Z,3.07
2022-11-18T06:59:44.947Z,3.60
2022-11-18T07:02:46.602Z,4.17
2022-11-18T07:05:48.298Z,4.37
2022-11-18T07:08:50.916Z,4.30
2022-11-18T07:11:52.647Z,4.00
2022-11-18T07:14:54.323Z,4.00
2022-11-18T07:17:55.999Z,4.63
2022-11-18T07:20:57.673Z,3.83
2022-11-18T07:23:59.340Z,4.50
2022-11-18T07:27:01.014Z,5.30
2022-11-18T07:30:02.746Z,5.70
2022-11-18T07:33:04.398Z,4.67
2022-11-18T07:36:11.911Z,5.03
2022-11-18T07:39:13.624Z,4.83
2022-11-18T07:42:15.303Z,4.47
2022-11-18T07:45:17.055Z,5.17
2022-11-18T07:48:18.713Z,4.87
2022-11-18T07:51:25.993Z,5.20
2022-11-18T07:54:27.626Z,5.33
2022-11-18T07:57:29.309Z,5.47
2022-11-18T08:00:31.021Z,5.50
2022-11-18T08:03:32.693Z,5.43
2022-11-18T08:06:34.898Z,6.10
2022-11-18T08:09:36.642Z,6.10
2022-11-18T08:12:38.301Z,5.37
2022-11-18T08:15:41.992Z,6.03
2022-11-18T08:18:44.246Z,6.93
2022-11-18T08:21:45.957Z,7.30
2022-11-18T08:24:47.728Z,7.47
2022-11-18T08:27:49.372Z,7.13
2022-11-18T08:30:51.015Z,6.53
2022-11-18T08:34:04.879Z,6.33
2022-11-18T08:37:06.539Z,5.20
2022-11-18T08:40:08.741Z,6.13
2022-11-18T08:43:12.061Z,6.10
2022-11-18T08:46:13.699Z,4.57
2022-11-18T08:49:15.499Z,4.90
2022-11-18T08:52:17.448Z,5.50
2022-11-18T08:55:19.103Z,5.40
2022-11-18T08:58:20.769Z,5.37
2022-11-18T09:01:22.877Z,5.77
2022-11-18T09:04:24.640Z,6.20
2022-11-18T09:07:27.050Z,5.83
2022-11-18T09:10:28.784Z,5.13
2022-11-18T09:14:00.592Z,5.63
2022-11-18T09:16:53.082Z,4.90
2022-11-18T09:19:54.836Z,6.17
2022-11-18T09:22:56.518Z,4.77
2022-11-18T09:26:07.107Z,5.37
2022-11-18T09:29:08.865Z,4.17
2022-11-18T09:32:10.581Z,4.17
2022-11-18T09:35:12.366Z,3.77
2022-11-18T09:38:14.212Z,3.93
2022-11-18T09:41:45.050Z,3.97
2022-11-18T09:45:13.203Z,4.27
2022-11-18T09:48:20.508Z,4.70
2022-11-18T09:51:26.895Z,4.27
2022-11-18T09:54:34.444Z,4.30
2022-11-18T09:57:40.260Z,4.87
2022-11-18T10:00:43.918Z,5.17
2022-11-18T10:03:45.594Z,5.00
2022-11-18T10:06:49.366Z,4.93
2022-11-18T10:09:54.067Z,5.13
2022-11-18T10:13:02.434Z,5.53
2022-11-18T10:16:43.664Z,5.40
2022-11-18T10:20:17.364Z,5.80
2022-11-18T10:23:26.726Z,5.10
2022-11-18T10:26:36.847Z,3.90
2022-11-18T10:29:38.624Z,4.47
2022-11-18T10:33:03.363Z,3.97
2022-11-18T10:36:12.871Z,3.80
2022-11-18T10:39:15.602Z,4.17
2022-11-18T10:42:40.122Z,3.70
2022-11-18T10:45:41.947Z,4.40
2022-11-18T10:48:43.637Z,3.73
2022-11-18T10:52:08.639Z,4.83
2022-11-18T10:55:21.451Z,6.30
2022-11-18T10:58:23.607Z,4.10
2022-11-18T11:01:26.575Z,3.83
2022-11-18T11:04:29.264Z,4.20
2022-11-18T11:07:32.600Z,3.77
2022-11-18T11:10:34.441Z,6.13
2022-11-18T11:13:42.426Z,5.40
2022-11-18T11:16:59.223Z,5.70
2022-11-18T11:20:15.517Z,6.37
2022-11-18T11:23:22.237Z,6.80
2022-11-18T11:30:19.318Z,8.03
2022-11-18T11:33:36.519Z,7.97
2022-11-18T11:36:53.138Z,7.50
2022-11-18T11:40:14.789Z,8.70
2022-11-18T11:43:43.444Z,7.60
2022-11-18T11:47:17.972Z,9.07
2022-11-18T11:50:25.809Z,9.97
2022-11-18T11:53:39.925Z,11.33
2022-11-18T11:56:47.324Z,9.70
2022-11-18T12:00:01.731Z,9.37
2022-11-18T12:03:35.298Z,9.23
2022-11-18T12:06:37.302Z,6.90
2022-11-18T12:09:58.078Z,8.13
2022-11-18T12:13:39.158Z,8.20
2022-11-18T12:17:12.802Z,9.83
2022-11-18T12:20:34.820Z,9.17
2022-11-18T12:23:36.462Z,10.43
2022-11-18T12:26:38.178Z,9.33
2022-11-18T12:29:49.010Z,9.63
2022-11-18T12:32:56.716Z,9.63
2022-11-18T12:35:58.384Z,10.33
2022-11-18T12:39:25.837Z,10.00
2022-11-18T12:42:59.946Z,10.60
2022-11-18T12:46:01.703Z,10.73
2022-11-18T12:49:21.854Z,9.13
2022-11-18T12:52:43.757Z,9.80
2022-11-18T12:55:45.415Z,9.90
2022-11-18T12:58:49.524Z,9.77
2022-11-18T13:02:21.903Z,8.97
2022-11-18T13:05:32.731Z,8.60
2022-11-18T13:08:35.339Z,8.07
2022-11-18T13:11:46.777Z,7.93
2022-11-18T13:15:07.728Z,8.60
2022-11-18T13:18:18.727Z,7.43
2022-11-18T13:21:44.675Z,7.63
2022-11-18T13:24:52.139Z,7.13
2022-11-18T13:28:11.660Z,7.07
2022-11-18T13:31:31.778Z,6.87
2022-11-18T13:34:47.040Z,7.30
2022-11-18T13:37:54.829Z,6.20
2022-11-18T13:41:07.783Z,7.43
2022-11-18T13:44:27.180Z,6.67
2022-11-18T13:47:57.302Z,6.20
2022-11-18T13:51:00.907Z,6.10
2022-11-18T13:54:02.652Z,7.27
2022-11-18T13:57:04.520Z,7.97
2022-11-18T14:00:19.438Z,7.97
2022-11-18T14:03:44.268Z,9.40
2022-11-18T14:06:46.019Z,8.97
2022-11-18T14:09:54.459Z,10.50
2022-11-18T14:13:00.959Z,8.93
2022-11-18T14:16:24.052Z,10.33
2022-11-18T14:19:31.510Z,9.93
2022-11-18T14:22:33.459Z,10.30
2022-11-18T14:25:36.664Z,11.47
2022-11-18T14:28:38.987Z,12.03
2022-11-18T14:31:42.343Z,11.90
2022-11-18T14:34:44.029Z,11.73
2022-11-18T14:37:45.751Z,10.93
2022-11-18T14:40:47.433Z,10.77
2022-11-18T14:43:49.099Z,12.00
2022-11-18T14:46:53.517Z,10.37
2022-11-18T14:49:55.574Z,10.90
2022-11-18T14:52:57.286Z,12.07
2022-11-18T14:56:00.141Z,11.47
2022-11-18T14:59:01.835Z,11.53
2022-11-18T15:02:03.812Z,11.73
2022-11-18T15:05:05.789Z,11.40
2022-11-18T15:08:08.398Z,11.90
2022-11-18T15:11:10.647Z,10.87
2022-11-18T15:14:12.418Z,9.60
2022-11-18T15:17:15.499Z,9.57
2022-11-18T15:20:19.911Z,7.80
2022-11-18T15:23:25.701Z,7.07
2022-11-18T15:26:37.123Z,7.10
2022-11-18T15:29:39.862Z,7.63
2022-11-18T15:32:42.367Z,6.43
2022-11-18T15:35:44.045Z,7.13
2022-11-18T15:38:46.332Z,7.03
2022-11-18T15:41:48.039Z,6.93
2022-11-18T15:44:49.708Z,7.30
2022-11-18T15:47:51.872Z,6.87
2022-11-18T15:50:54.425Z,6.50
2022-11-18T15:53:56.218Z,5.90
2022-11-18T15:56:57.878Z,6.63
2022-11-18T15:59:59.705Z,6.40
2022-11-18T16:03:01.339Z,4.90
2022-11-18T16:06:03.406Z,6.27
2022-11-18T16:09:06.088Z,5.60
2022-11-18T16:12:27.386Z,6.30
2022-11-18T16:15:44.264Z,5.97
2022-11-18T16:18:46.056Z,6.37
2022-11-18T16:21:50.195Z,6.30
2022-11-18T16:24:53.383Z,6.07
2022-11-18T16:27:55.870Z,6.53
2022-11-18T16:31:16.200Z,7.23
2022-11-18T16:34:22.122Z,6.37
2022-11-18T16:37:23.931Z,6.33
2022-11-18T16:40:28.644Z,5.70
2022-11-18T16:43:30.368Z,7.33
2022-11-18T16:46:33.868Z,7.27
2022-11-18T16:49:35.620Z,6.00
2022-11-18T16:52:37.489Z,5.70
2022-11-18T16:55:39.658Z,6.20
2022-11-18T16:58:41.295Z,6.33
2022-11-18T17:01:55.149Z,6.23
2022-11-18T17:04:56.952Z,6.03
2022-11-18T17:07:58.676Z,6.33
2022-11-18T17:11:11.437Z,6.90
2022-11-18T17:14:13.137Z,6.23
2022-11-18T17:17:14.799Z,6.77
2022-11-18T17:20:16.796Z,8.27
2022-11-18T17:23:18.475Z,6.30
2022-11-18T17:26:27.040Z,6.70
2022-11-18T17:29:29.086Z,6.67
2022-11-18T17:32:30.736Z,6.30
2022-11-18T17:35:32.424Z,7.17
2022-11-18T17:38:35.682Z,7.57
2022-11-18T17:41:56.001Z,6.97
2022-11-18T17:44:57.657Z,6.97
2022-11-18T17:47:59.326Z,6.47
2022-11-18T17:51:05.401Z,6.13
2022-11-18T17:54:07.811Z,6.00
2022-11-18T17:57:09.499Z,6.37
2022-11-18T18:00:11.780Z,7.00
2022-11-18T18:03:15.042Z,5.70
2022-11-18T18:06:17.784Z,5.50
2022-11-18T18:09:21.833Z,5.43
2022-11-18T18:12:45.758Z,5.90
2022-11-18T18:15:47.442Z,5.80
2022-11-18T18:18:49.236Z,5.27
2022-11-18T18:21:51.160Z,5.40
2022-11-18T18:24:52.899Z,6.00
2022-11-18T18:27:54.614Z,5.37
2022-11-18T18:31:00.422Z,5.10
2022-11-18T18:34:02.466Z,5.30
2022-11-18T18:37:04.157Z,5.17
2022-11-18T18:40:06.473Z,5.43
2022-11-18T18:43:08.156Z,5.17
2022-11-18T18:46:34.075Z,5.00
2022-11-18T18:49:35.949Z,5.47
2022-11-18T18:52:37.965Z,4.60
2022-11-18T18:55:44.618Z,4.80
2022-11-18T18:58:46.808Z,5.20
2022-11-18T19:01:48.574Z,5.33
2022-11-18T19:04:50.414Z,5.13
2022-11-18T19:07:52.182Z,4.70
2022-11-18T19:10:53.900Z,5.87
2022-11-18T19:13:58.933Z,5.73
2022-11-18T19:17:06.363Z,6.43
2022-11-18T19:20:32.137Z,6.10
2022-11-18T19:23:33.848Z,5.87
2022-11-18T19:26:35.862Z,5.50
2022-11-18T19:29:37.544Z,4.87
2022-11-18T19:32:40.417Z,5.03
2022-11-18T19:35:42.111Z,5.13
2022-11-18T19:38:44.090Z,5.23
2022-11-18T19:41:45.779Z,4.60
2022-11-18T19:44:47.471Z,5.70
2022-11-18T19:47:49.235Z,4.37
2022-11-18T19:50:51.045Z,6.03
2022-11-18T19:53:58.434Z,4.90
2022-11-18T19:57:03.669Z,5.03
2022-11-18T20:00:05.896Z,5.57
2022-11-18T20:03:10.903Z,4.37
2022-11-18T20:06:16.092Z,4.03
2022-11-18T20:09:18.419Z,3.40
2022-11-18T20:12:20.324Z,3.57
2022-11-18T20:15:22.426Z,3.03
2022-11-18T20:18:25.326Z,3.97
2022-11-18T20:21:28.504Z,3.87
2022-11-18T20:24:30.194Z,3.27
2022-11-18T20:27:31.847Z,3.53
2022-11-18T20:30:33.565Z,3.07
2022-11-18T20:33:40.490Z,3.93
2022-11-18T20:36:42.696Z,3.03
2022-11-18T20:39:44.382Z,4.07
2022-11-18T20:43:04.888Z,3.23
2022-11-18T20:46:08.078Z,4.30
2022-11-18T20:49:09.840Z,3.50
2022-11-18T20:52:11.501Z,3.73
2022-11-18T20:55:13.403Z,4.47
2022-11-18T20:58:15.847Z,4.17
2022-11-18T21:01:22.567Z,3.90
2022-11-18T21:04:24.290Z,3.70
2022-11-18T21:07:26.041Z,4.30
2022-11-18T21:10:27.762Z,5.47
2022-11-18T21:13:48.688Z,5.37
2022-11-18T21:16:51.423Z,3.43
2022-11-18T21:19:53.112Z,4.27
2022-11-18T21:22:56.860Z,5.40
2022-11-18T21:26:01.432Z,4.87
2022-11-18T21:29:05.513Z,4.33
2022-11-18T21:32:07.155Z,5.50
2022-11-18T21:35:09.203Z,4.40
2022-11-18T21:38:10.868Z,4.57
2022-11-18T21:41:12.804Z,4.63
2022-11-18T21:44:14.879Z,5.30
2022-11-18T21:47:16.535Z,3.90
2022-11-18T21:50:18.263Z,5.17
2022-11-18T21:53:20.033Z,4.50
2022-11-18T21:56:23.587Z,4.50
2022-11-18T21:59:25.246Z,5.07
2022-11-18T22:02:26.953Z,4.27
2022-11-18T22:05:29.330Z,4.90
2022-11-18T22:08:31.188Z,4.97
2022-11-18T22:11:32.898Z,4.10
2022-11-18T22:14:34.683Z,4.37
2022-11-18T22:17:36.352Z,4.50
2022-11-18T22:20:38.402Z,3.63
2022-11-18T22:23:40.570Z,4.53
2022-11-18T22:26:42.391Z,4.00
2022-11-18T22:29:44.194Z,4.10
2022-11-18T22:32:45.843Z,3.97
2022-11-18T22:35:47.554Z,4.17
2022-11-18T22:38:49.689Z,3.77
2022-11-18T22:42:09.718Z,3.97
2022-11-18T22:45:11.423Z,3.87
2022-11-18T22:48:13.290Z,3.93
2022-11-18T22:51:14.937Z,4.10
2022-11-18T22:54:37.841Z,3.60
2022-11-18T22:57:38.274Z,3.87
2022-11-18T23:00:39.920Z,3.57
2022-11-18T23:03:41.908Z,4.03
2022-11-18T23:06:43.573Z,3.87
2022-11-18T23:09:45.276Z,3.90
2022-11-18T23:13:05.480Z,3.77
2022-11-18T23:16:07.358Z,3.77
2022-11-18T23:19:14.437Z,3.60
2022-11-18T23:22:16.214Z,4.30
2022-11-18T23:25:17.865Z,4.43
2022-11-18T23:28:19.704Z,3.43
2022-11-18T23:31:24.421Z,3.83
2022-11-18T23:34:26.070Z,3.97
2022-11-18T23:37:27.713Z,4.20
2022-11-18T23:40:30.918Z,4.17
2022-11-18T23:43:33.233Z,4.80
2022-11-18T23:46:35.033Z,5.37
2022-11-18T23:49:36.704Z,5.13
2022-11-18T23:52:41.684Z,6.07
2022-11-18T23:55:43.324Z,5.63
2022-11-18T23:58:47.169Z,6.50
